Latest Weather Observations for Applethorpe

IDQ60801

Issued at 3:32 pm EST Monday 22 December 2014 (issued every 30 minutes, with the page automatically refreshed every 10 minutes)

About weather observations | Map of weather stations | Latest weather observations for QLD | Other Formats
Station Details ID: 041175 Name: APPLETHORPE Lat: -28.62 Lon: 151.95 Height: 871.6 m
Data from the previous 72 hours. | See also: Recent months at Applethorpe
Date/Time
EST
Temp
°C
App
Temp
°C
Dew
Point
Rel
Hum
%
Delta-T
°C
Wind Press
QNH
hPa
Press
MSL
hPa
Rain
since 9 am
mm
Dir
 
Spd
km/h
Gust
km/h
Spd
kts
Gust
kts
22/03:30pm 25.4 24.1 12.5 44 7.7 ENE 11 22 6 12 1018.2 1013.8 0.0
22/03:00pm 25.2 24.3 12.5 45 7.6 E 9 20 5 11 1018.7 1014.3 0.0
22/02:30pm 25.1 24.0 12.1 44 7.7 E 9 17 5 9 1019.0 1014.6 0.0
22/02:00pm 25.2 24.4 12.9 46 7.4 E 9 19 5 10 1019.2 1014.8 0.0
22/01:30pm 25.6 25.2 14.0 48 7.1 E 9 17 5 9 1019.7 1015.3 0.0
22/01:00pm 25.5 25.2 14.3 50 6.9 ENE 9 19 5 10 1020.0 1015.6 0.0
22/12:30pm 24.7 24.7 14.1 51 6.5 ESE 7 19 4 10 1020.5 1016.2 0.0
22/12:00pm 24.6 24.5 14.9 54 6.0 E 9 17 5 9 1020.7 1016.4 0.0
22/11:30am 23.7 23.9 14.6 56 5.6 E 7 17 4 9 1021.0 1016.6 0.0
22/11:00am 22.4 22.7 14.5 61 4.8 ENE 6 13 3 7 1021.4 1017.1 0.0
22/10:30am 22.1 21.8 14.4 61 4.7 E 9 19 5 10 1021.5 1017.2 0.0
22/10:00am 21.1 21.0 14.9 67 3.8 E 9 17 5 9 1021.4 1017.1 0.0
22/09:30am 21.6 21.6 15.3 67 3.9 E 9 19 5 10 1021.3 1016.9 0.0
22/09:00am 20.4 20.1 14.4 68 3.6 ESE 9 15 5 8 1021.4 1017.1 0.0
22/08:30am 20.1 20.1 14.1 68 3.6 ESE 7 13 4 7 1021.4 1017.1 0.0
22/08:00am 19.2 18.9 14.4 74 2.9 E 9 17 5 9 1021.1 1016.7 0.0
22/07:30am 17.7 17.3 14.0 79 2.2 E 9 17 5 9 1021.2 1016.8 0.0
22/07:00am 16.8 16.8 14.3 85 1.5 ESE 7 13 4 7 1021.0 1016.6 0.0
22/06:30am 16.4 16.6 14.6 89 1.1 ESE 7 15 4 8 1020.5 1016.2 0.0
22/06:00am 15.8 16.3 15.0 95 0.5 E 6 11 3 6 1020.1 1015.7 0.0
22/05:30am 15.6 16.5 15.1 97 0.3 E 4 11 2 6 1020.0 1015.6 0.0
22/05:00am 15.3 16.2 15.0 98 0.2 E 4 9 2 5 1019.7 1015.3 0.0
22/04:30am 15.3 15.6 15.1 99 0.1 E 7 15 4 8 1019.2 1014.8 0.0
22/04:00am 15.4 15.8 15.2 99 0.1 E 7 13 4 7 1019.1 1014.7 0.0
22/03:30am 15.6 16.0 15.3 98 0.2 E 7 13 4 7 1019.1 1014.7 0.0
22/03:00am 15.8 16.4 15.3 97 0.3 ESE 6 9 3 5 1019.3 1015.0 0.0
22/02:30am 16.0 16.7 15.5 97 0.3 E 6 9 3 5 1019.5 1015.2 0.0
22/02:00am 16.0 16.7 15.7 98 0.2 E 6 9 3 5 1019.4 1015.1 0.0
22/01:30am 16.0 16.6 15.7 98 0.2 ESE 7 13 4 7 1019.7 1015.3 0.0
22/01:00am 16.2 16.8 15.7 97 0.3 E 7 15 4 8 1019.9 1015.5 0.0
22/12:30am 16.5 16.7 15.8 96 0.4 E 9 19 5 10 1020.0 1015.6 0.0
22/12:00am 16.7 17.0 16.0 96 0.4 ENE 9 19 5 10 1020.3 1015.9 0.0
 
Date/Time
EST
Temp
°C
App
Temp
°C
Dew
Point
Rel
Hum
%
Delta-T
°C
Wind Press
QNH
hPa
Press
MSL
hPa
Rain
since 9 am
mm
Dir
 
Spd
km/h
Gust
km/h
Spd
kts
Gust
kts
21/11:30pm 16.7 16.6 16.0 96 0.4 E 11 20 6 11 1020.5 1016.2 0.0
21/11:00pm 17.0 17.4 16.2 95 0.5 E 9 15 5 8 1021.0 1016.6 0.0
21/10:30pm 17.6 18.4 16.3 92 0.8 ENE 7 17 4 9 1021.5 1017.2 0.0
21/10:00pm 17.8 18.2 16.2 90 1.0 E 9 15 5 8 1021.0 1016.6 0.0
21/09:30pm 18.0 18.4 16.2 89 1.1 ESE 9 19 5 10 1020.4 1016.1 0.0
21/09:00pm 18.1 19.0 16.5 90 1.0 ENE 7 15 4 8 1020.1 1015.7 0.0
21/08:30pm 18.4 19.5 16.6 89 1.1 ENE 6 9 3 5 1020.4 1016.1 0.0
21/08:00pm 18.8 19.7 16.6 87 1.4 E 7 15 4 8 1020.3 1015.9 0.0
21/07:30pm 19.7 20.6 16.2 80 2.2 E 6 19 3 10 1019.4 1015.1 0.0
21/07:00pm 20.5 20.6 15.6 73 3.0 ENE 9 19 5 10 1018.9 1014.5 0.0
21/06:30pm 21.2 22.5 16.2 73 3.1 E 4 6 2 3 1019.3 1015.0 0.0
21/06:00pm 22.2 22.6 15.4 65 4.2 ENE 7 17 4 9 1018.7 1014.3 0.0
21/05:30pm 23.0 24.3 17.0 69 3.8 ENE 6 11 3 6 1018.1 1013.7 0.0
21/05:00pm 21.3 22.2 16.2 72 3.2 NE 6 9 3 5 1018.1 1013.7 0.0
21/04:30pm 22.8 23.1 15.9 65 4.3 ENE 9 17 5 9 1018.0 1013.6 0.0
21/04:00pm 22.2 22.9 15.6 66 4.1 ESE 6 13 3 7 1018.3 1014.0 0.0
21/03:30pm 23.7 23.5 14.6 56 5.6 NNE 9 13 5 7 1018.0 1013.6 0.0
21/03:00pm 24.3 23.7 14.7 55 5.9 NNE 11 17 6 9 1018.3 1014.0 0.0
21/02:30pm 24.7 24.9 15.8 57 5.6 NE 9 17 5 9 1018.8 1014.4 0.0
21/02:00pm 23.2 23.6 15.3 61 4.9 NE 7 13 4 7 1019.1 1014.7 0.0
21/01:30pm 24.2 24.8 15.7 59 5.3 NNE 7 13 4 7 1019.4 1015.1 0.0
21/01:00pm 23.1 23.8 15.5 62 4.7 NE 6 17 3 9 1020.0 1015.6 0.0
21/12:30pm 24.3 25.1 16.4 61 5.0 NE 7 13 4 7 1020.4 1016.1 0.0
21/12:00pm 21.5 21.8 15.0 66 4.0 NE 7 15 4 8 1020.9 1016.5 0.0
21/11:30am 22.3 22.7 15.2 64 4.4 E 7 17 4 9 1021.1 1016.7 0.0
21/11:00am 22.2 22.6 15.2 64 4.3 ENE 7 15 4 8 1021.3 1016.9 0.0
21/10:30am 22.0 22.4 15.2 65 4.2 ENE 7 13 4 7 1021.4 1017.1 0.0
21/10:00am 21.5 21.2 14.4 64 4.3 ENE 9 17 5 9 1021.4 1017.1 0.0
21/09:30am 21.8 22.0 14.8 64 4.3 ENE 7 13 4 7 1021.5 1017.2 0.0
21/09:00am 19.2 19.0 14.7 75 2.7 NE 9 19 5 10 1021.5 1017.2 0.0
21/08:30am 19.1 19.3 14.6 75 2.7 ENE 7 15 4 8 1021.6 1017.3 0.0
21/08:00am 18.1 18.3 14.6 80 2.1 ENE 7 17 4 9 1021.5 1017.2 0.0
21/07:30am 17.3 17.5 14.6 84 1.6 ENE 7 13 4 7 1021.3 1016.9 0.0
21/07:00am 16.9 16.7 14.7 87 1.3 ENE 9 15 5 8 1021.0 1016.6 0.0
21/06:30am 16.5 16.7 14.7 89 1.1 ENE 7 17 4 9 1020.5 1016.2 0.0
21/06:00am 16.3 16.5 14.6 90 1.0 ENE 7 15 4 8 1020.1 1015.7 0.0
21/05:30am 16.0 15.7 14.5 91 0.9 ENE 9 19 5 10 1019.7 1015.3 0.0
21/05:00am 15.9 15.7 14.7 93 0.7 ENE 9 19 5 10 1019.3 1015.0 0.0
21/04:30am 15.9 16.1 14.7 93 0.7 ENE 7 17 4 9 1019.0 1014.6 0.0
21/04:00am 15.9 15.7 14.6 92 0.8 ENE 9 17 5 9 1018.8 1014.4 0.0
21/03:30am 15.8 15.6 14.6 93 0.7 NE 9 15 5 8 1018.8 1014.4 0.0
21/03:00am 15.9 16.1 14.7 93 0.7 ENE 7 13 4 7 1018.8 1014.4 0.0
21/02:30am 16.0 16.2 14.8 93 0.7 ENE 7 13 4 7 1018.7 1014.3 0.0
21/02:00am 15.9 15.8 14.9 94 0.6 ENE 9 19 5 10 1018.8 1014.4 0.0
21/01:30am 15.9 15.9 15.1 95 0.5 ENE 9 19 5 10 1019.0 1014.6 0.0
21/01:00am 16.1 16.4 15.1 94 0.6 E 7 17 4 9 1019.2 1014.8 0.0
21/12:30am 16.1 16.4 15.1 94 0.6 E 7 15 4 8 1019.4 1015.1 0.0
21/12:00am 16.4 15.9 14.9 91 0.9 E 11 19 6 10 1019.5 1015.2 0.0
 
Date/Time
EST
Temp
°C
App
Temp
°C
Dew
Point
Rel
Hum
%
Delta-T
°C
Wind Press
QNH
hPa
Press
MSL
hPa
Rain
since 9 am
mm
Dir
 
Spd
km/h
Gust
km/h
Spd
kts
Gust
kts
20/11:30pm 16.8 16.7 15.0 89 1.1 E 9 17 5 9 1019.8 1015.4 0.0
20/11:00pm 17.0 17.5 15.0 88 1.2 E 6 15 3 8 1020.0 1015.6 0.0
20/10:30pm 17.2 17.6 15.2 88 1.2 E 7 20 4 11 1020.2 1015.8 0.0
20/10:00pm 17.3 16.9 15.2 87 1.3 E 11 17 6 9 1020.1 1015.7 0.0
20/09:30pm 17.5 17.1 15.2 86 1.4 E 11 22 6 12 1019.9 1015.5 0.0
20/09:00pm 17.9 17.9 15.3 85 1.6 E 9 20 5 11 1019.5 1015.2 0.0
20/08:30pm 18.0 18.1 15.4 85 1.6 E 9 22 5 12 1019.2 1014.8 0.0
20/08:00pm 18.3 18.4 15.5 84 1.7 E 9 19 5 10 1018.8 1014.4 0.0
20/07:30pm 19.0 19.1 15.6 80 2.1 E 9 17 5 9 1018.3 1014.0 0.0
20/07:00pm 19.7 19.8 15.5 77 2.6 E 9 19 5 10 1017.8 1013.4 0.0
20/06:30pm 20.9 21.0 15.4 71 3.4 E 9 19 5 10 1017.5 1013.1 0.0
20/06:00pm 22.1 21.7 14.2 61 4.8 E 9 19 5 10 1017.0 1012.6 0.0
20/05:30pm 24.3 24.3 14.2 53 6.2 ENE 7 15 4 8 1016.6 1012.2 0.0
20/05:00pm 24.7 24.7 14.3 52 6.4 E 7 13 4 7 1016.3 1011.9 0.0
20/04:30pm 24.2 23.7 13.7 52 6.4 ENE 9 19 5 10 1016.3 1011.9 0.0
20/04:00pm 25.4 25.1 13.4 47 7.3 NE 7 13 4 7 1016.2 1011.7 0.0
20/03:30pm 24.6 24.6 14.2 52 6.4 NE 7 17 4 9 1016.3 1011.9 0.0
20/03:00pm 24.8 24.8 14.2 51 6.5 NNE 7 19 4 10 1016.5 1012.1 0.0
20/02:30pm 25.6 26.0 15.2 52 6.5 NE 7 15 4 8 1016.9 1012.5 0.0
20/02:00pm 24.9 25.1 14.3 51 6.5 NE 6 11 3 6 1017.3 1012.9 0.0
20/01:30pm 24.1 24.0 13.3 51 6.5 ENE 6 11 3 6 1017.5 1013.1 0.0
20/01:00pm 23.5 23.4 14.0 55 5.8 NE 7 13 4 7 1017.9 1013.5 0.0
20/12:30pm 23.0 22.8 13.1 53 5.9 NNE 6 11 3 6 1018.2 1013.8 0.0
20/12:00pm 24.0 24.1 14.0 53 6.1 ENE 6 13 3 7 1018.7 1014.3 0.0
20/11:30am 23.3 23.1 14.7 58 5.3 NE 9 19 5 10 1019.0 1014.6 0.0
20/11:00am 23.7 24.2 15.5 60 5.1 E 7 19 4 10 1019.3 1015.0 0.0
20/10:30am 22.1 21.8 14.4 61 4.7 ENE 9 15 5 8 1019.4 1015.1 0.0
20/10:00am 21.6 21.3 14.5 64 4.3 NE 9 20 5 11 1019.4 1015.1 0.0
20/09:30am 21.4 21.6 14.7 65 4.1 ENE 7 15 4 8 1019.4 1015.1 0.0
20/09:00am 20.2 19.8 14.2 68 3.6 ENE 9 15 5 8 1019.3 1015.0 0.0
20/08:30am 19.8 19.1 14.3 70 3.3 ENE 11 20 6 11 1019.4 1015.1 0.0
20/08:00am 18.3 18.0 14.3 77 2.4 E 9 19 5 10 1019.3 1015.0 0.0
20/07:30am 17.8 17.2 14.5 81 2.0 E 11 22 6 12 1019.0 1014.6 0.0
20/07:00am 17.1 16.8 14.4 84 1.6 ENE 9 19 5 10 1018.7 1014.3 0.0
20/06:30am 16.7 16.4 14.5 87 1.3 ENE 9 22 5 12 1018.2 1013.8 0.0
20/06:00am 16.3 15.9 14.1 87 1.3 ENE 9 22 5 12 1017.9 1013.5 0.0
20/05:30am 16.0 16.0 14.3 90 1.0 ENE 7 15 4 8 1017.8 1013.4 0.0
20/05:00am 15.8 16.0 14.3 91 0.9 E 6 13 3 7 1017.5 1013.1 0.0
20/04:30am 15.9 16.0 14.4 91 0.9 E 7 15 4 8 1017.3 1012.9 0.0
20/04:00am 15.8 15.9 14.5 92 0.8 E 7 15 4 8 1017.0 1012.6 0.0
20/03:30am 15.9 16.0 14.4 91 0.9 E 7 19 4 10 1016.8 1012.4 0.0
20/03:00am 16.0 16.4 14.7 92 0.8 ENE 6 13 3 7 1016.8 1012.4 0.0
20/02:30am 16.0 15.8 14.7 92 0.8 E 9 15 5 8 1016.7 1012.3 0.0
20/02:00am 16.1 16.3 14.6 91 0.9 E 7 15 4 8 1016.8 1012.4 0.0
20/01:30am 16.4 16.8 15.2 93 0.7 ENE 7 15 4 8 1016.9 1012.5 0.0
20/01:00am 16.4 16.8 15.2 93 0.7 ENE 7 13 4 7 1017.4 1013.0 0.0
20/12:30am 16.3 16.6 15.1 93 0.7 ENE 7 15 4 8 1017.5 1013.1 0.0
20/12:00am 16.7 17.1 15.2 91 0.9 ENE 7 19 4 10 1017.8 1013.4 0.0
 
Date/Time
EST
Temp
°C
App
Temp
°C
Dew
Point
Rel
Hum
%
Delta-T
°C
Wind Press
QNH
hPa
Press
MSL
hPa
Rain
since 9 am
mm
Dir
 
Spd
km/h
Gust
km/h
Spd
kts
Gust
kts
19/11:30pm 16.4 16.7 14.9 91 0.9 ENE 7 13 4 7 1018.0 1013.6 0.0
19/11:00pm 16.7 17.0 15.0 90 1.0 E 7 13 4 7 1018.1 1013.7 0.0
19/10:30pm 17.5 17.4 15.0 85 1.5 ENE 9 17 5 9 1018.3 1014.0 0.0
19/10:00pm 17.6 18.1 15.5 87 1.3 ENE 7 15 4 8 1018.2 1013.8 0.0
19/09:30pm 17.6 18.3 15.6 88 1.2 ENE 6 13 3 7 1018.1 1013.7 0.0
19/09:00pm 17.8 18.6 15.8 88 1.2 ENE 6 13 3 7 1017.8 1013.4 0.0
19/08:30pm 18.4 19.1 16.0 86 1.5 E 7 17 4 9 1017.4 1013.0 0.0
19/08:00pm 19.2 19.5 16.1 82 1.9 E 9 22 5 12 1017.0 1012.6 0.0
19/07:30pm 20.3 21.0 16.0 76 2.7 E 7 13 4 7 1016.4 1012.0 0.0
19/07:00pm 21.7 21.2 10.7 49 6.3 SW 4 6 2 3 1015.4 1011.0 0.0
19/06:30pm 24.8 24.0 9.5 38 8.7 SW 4 7 2 4 1015.0 1010.5 0.0
19/06:00pm 25.4 23.4 7.2 31 10.0 SSW 7 13 4 7 1014.8 1010.3 0.0
19/05:30pm 25.8 23.0 7.0 30 10.3 SW 11 20 6 11 1014.4 1010.0 0.0
19/05:00pm 25.6 23.4 8.0 32 9.8 SW 9 17 5 9 1014.1 1009.6 0.0
19/04:30pm 25.6 22.5 8.8 34 9.5 WSW 15 28 8 15 1013.9 1009.4 0.0
19/04:00pm 27.4 24.6 8.5 30 10.7 SW 13 26 7 14 1013.8 1009.3 0.0

Other Formats:

Comma delimited format used in spreadsheet applications
http://www.bom.gov.au/fwo/IDQ60801/IDQ60801.94553.axf

JavaScript Object Notation format (JSON) in row-major order
http://www.bom.gov.au/fwo/IDQ60801/IDQ60801.94553.json